createdAt,value
2022-12-03T00:00:11.930Z,12.18
2022-12-03T00:02:38.603Z,11.57
2022-12-03T00:05:04.900Z,12.73
2022-12-03T00:07:30.743Z,12.38
2022-12-03T00:09:56.594Z,12.68
2022-12-03T00:12:22.415Z,12.18
2022-12-03T00:14:48.208Z,12.50
2022-12-03T00:17:13.988Z,12.68
2022-12-03T00:19:39.836Z,13.48
2022-12-03T00:22:05.622Z,13.00
2022-12-03T00:24:31.949Z,13.15
2022-12-03T00:26:57.831Z,13.50
2022-12-03T00:29:23.677Z,13.52
2022-12-03T00:31:49.507Z,14.18
2022-12-03T00:34:15.324Z,14.35
2022-12-03T00:36:41.152Z,14.52
2022-12-03T00:39:06.946Z,13.57
2022-12-03T00:41:32.722Z,15.25
2022-12-03T00:43:59.040Z,14.70
2022-12-03T00:46:25.054Z,14.68
2022-12-03T00:48:50.900Z,16.20
2022-12-03T00:51:16.708Z,15.60
2022-12-03T00:53:42.474Z,14.00
2022-12-03T00:56:09.728Z,14.77
2022-12-03T00:58:35.646Z,16.15
2022-12-03T01:01:01.654Z,14.30
2022-12-03T01:03:28.532Z,14.57
2022-12-03T01:05:54.350Z,16.08
2022-12-03T01:08:20.132Z,14.70
2022-12-03T01:10:45.914Z,14.85
2022-12-03T01:13:11.728Z,15.55
2022-12-03T01:15:37.569Z,16.10
2022-12-03T01:18:03.501Z,15.75
2022-12-03T01:20:29.374Z,14.88
2022-12-03T01:22:55.181Z,16.00
2022-12-03T01:25:21.000Z,14.75
2022-12-03T01:27:46.769Z,16.27
2022-12-03T01:30:13.209Z,16.65
2022-12-03T01:32:38.996Z,15.77
2022-12-03T01:35:05.285Z,15.52
2022-12-03T01:37:31.151Z,15.85
2022-12-03T01:39:56.993Z,15.63
2022-12-03T01:42:34.140Z,16.48
2022-12-03T01:45:00.899Z,16.50
2022-12-03T01:47:30.476Z,15.95
2022-12-03T01:50:04.224Z,15.95
2022-12-03T01:52:35.328Z,17.27
2022-12-03T01:55:05.306Z,15.80
2022-12-03T01:57:39.875Z,16.17
2022-12-03T02:00:10.158Z,15.90
2022-12-03T02:02:35.894Z,14.93
2022-12-03T02:05:06.689Z,16.58
2022-12-03T02:07:33.295Z,16.17
2022-12-03T02:10:01.578Z,15.45
2022-12-03T02:12:32.471Z,17.10
2022-12-03T02:14:58.867Z,17.52
2022-12-03T02:17:25.689Z,16.20
2022-12-03T02:19:51.962Z,15.35
2022-12-03T02:22:32.263Z,16.08
2022-12-03T02:25:35.407Z,14.77
2022-12-03T02:28:02.881Z,16.02
2022-12-03T02:30:30.229Z,16.90
2022-12-03T02:32:57.156Z,17.40
2022-12-03T02:35:26.591Z,16.63
2022-12-03T02:37:57.880Z,16.23
2022-12-03T02:40:26.774Z,15.90
2022-12-03T02:42:56.241Z,15.38
2022-12-03T02:45:30.210Z,16.17
2022-12-03T02:48:05.319Z,15.82
2022-12-03T02:50:34.233Z,16.20
2022-12-03T02:53:04.891Z,15.40
2022-12-03T02:55:37.178Z,16.42
2022-12-03T02:58:04.092Z,16.38
2022-12-03T03:00:31.280Z,15.68
2022-12-03T03:02:57.550Z,16.58
2022-12-03T03:05:24.185Z,14.23
2022-12-03T03:07:50.754Z,16.27
2022-12-03T03:10:21.461Z,14.70
2022-12-03T03:12:47.670Z,14.27
2022-12-03T03:15:14.010Z,13.43
2022-12-03T03:17:41.493Z,13.38
2022-12-03T03:20:09.109Z,13.43
2022-12-03T03:22:37.907Z,12.73
2022-12-03T03:25:06.555Z,13.48
2022-12-03T03:27:32.980Z,13.25
2022-12-03T03:29:59.234Z,11.70
2022-12-03T03:32:27.534Z,11.70
2022-12-03T03:34:54.140Z,12.23
2022-12-03T03:37:20.290Z,12.43
2022-12-03T03:39:46.160Z,11.60
2022-12-03T03:42:12.023Z,11.60
2022-12-03T03:44:38.172Z,11.77
2022-12-03T03:47:04.216Z,11.45
2022-12-03T03:49:30.096Z,11.57
2022-12-03T03:51:55.935Z,11.48
2022-12-03T03:54:22.379Z,11.00
2022-12-03T03:56:48.377Z,11.07
2022-12-03T03:59:14.825Z,10.82
2022-12-03T04:01:41.097Z,12.30
2022-12-03T04:04:21.818Z,12.15
2022-12-03T04:06:48.065Z,11.57
2022-12-03T04:09:13.964Z,11.65
2022-12-03T04:11:58.124Z,11.85
2022-12-03T04:14:23.938Z,11.10
2022-12-03T04:16:49.755Z,11.20
2022-12-03T04:19:15.588Z,10.65
2022-12-03T04:22:00.093Z,10.50
2022-12-03T04:24:26.034Z,10.52
2022-12-03T04:27:10.521Z,10.65
2022-12-03T04:29:36.459Z,9.80
2022-12-03T04:32:20.984Z,10.50
2022-12-03T04:35:05.327Z,11.00
2022-12-03T04:37:31.242Z,10.88
2022-12-03T04:39:57.125Z,10.52
2022-12-03T04:42:22.865Z,10.68
2022-12-03T04:44:49.501Z,10.55
2022-12-03T04:47:20.158Z,10.75
2022-12-03T04:49:48.704Z,10.68
2022-12-03T04:52:17.172Z,10.35
2022-12-03T04:54:43.304Z,10.18
2022-12-03T04:57:09.720Z,11.13
2022-12-03T04:59:36.189Z,11.20
2022-12-03T05:02:02.694Z,11.65
2022-12-03T05:04:28.614Z,10.75
2022-12-03T05:06:54.461Z,11.32
2022-12-03T05:09:20.363Z,10.82
2022-12-03T05:11:46.150Z,11.20
2022-12-03T05:14:12.087Z,11.02
2022-12-03T05:16:38.347Z,10.90
2022-12-03T05:19:05.604Z,11.38
2022-12-03T05:21:31.552Z,11.68
2022-12-03T05:23:57.660Z,11.52
2022-12-03T05:26:23.547Z,11.45
2022-12-03T05:28:49.491Z,11.20
2022-12-03T05:31:15.884Z,12.73
2022-12-03T05:33:44.357Z,10.52
2022-12-03T05:36:10.802Z,11.40
2022-12-03T05:38:36.614Z,10.88
2022-12-03T05:41:22.704Z,11.07
2022-12-03T05:43:48.827Z,11.13
2022-12-03T05:46:14.640Z,11.88
2022-12-03T05:48:40.421Z,10.82
2022-12-03T05:51:06.218Z,11.63
2022-12-03T05:53:32.016Z,11.30
2022-12-03T05:55:57.793Z,11.73
2022-12-03T05:58:23.561Z,11.18
2022-12-03T06:00:49.325Z,12.13
2022-12-03T06:03:15.293Z,11.70
2022-12-03T06:05:41.162Z,10.95
2022-12-03T06:08:06.974Z,10.98
2022-12-03T06:10:32.801Z,11.98
2022-12-03T06:12:58.685Z,12.18
2022-12-03T06:15:24.412Z,11.70
2022-12-03T06:17:50.914Z,12.13
2022-12-03T06:20:18.611Z,12.50
2022-12-03T06:22:44.949Z,11.00
2022-12-03T06:25:11.831Z,13.20
2022-12-03T06:27:38.776Z,12.15
2022-12-03T06:30:05.536Z,12.65
2022-12-03T06:32:31.318Z,11.50
2022-12-03T06:34:57.058Z,10.63
2022-12-03T06:37:22.793Z,10.75
2022-12-03T06:39:48.610Z,11.23
2022-12-03T06:42:14.448Z,11.75
2022-12-03T06:44:40.442Z,11.85
2022-12-03T06:47:06.219Z,11.77
2022-12-03T06:49:32.260Z,12.20
2022-12-03T06:51:58.062Z,11.93
2022-12-03T06:54:23.809Z,11.27
2022-12-03T06:56:49.587Z,10.95
2022-12-03T06:59:15.347Z,11.80
2022-12-03T07:01:41.248Z,10.68
2022-12-03T07:04:07.083Z,11.05
2022-12-03T07:06:32.867Z,12.13
2022-12-03T07:08:58.717Z,10.75
2022-12-03T07:11:30.444Z,11.52
2022-12-03T07:14:01.571Z,11.02
2022-12-03T07:16:30.736Z,11.57
2022-12-03T07:18:56.575Z,11.15
2022-12-03T07:21:26.679Z,10.88
2022-12-03T07:23:52.459Z,11.77
2022-12-03T07:26:18.539Z,11.88
2022-12-03T07:28:44.384Z,11.32
2022-12-03T07:31:10.248Z,12.00
2022-12-03T07:33:36.031Z,12.02
2022-12-03T07:36:01.876Z,11.68
2022-12-03T07:38:27.668Z,10.75
2022-12-03T07:40:53.423Z,11.57
2022-12-03T07:43:19.212Z,11.45
2022-12-03T07:45:45.020Z,11.98
2022-12-03T07:48:10.743Z,12.10
2022-12-03T07:50:36.532Z,12.90
2022-12-03T07:53:02.302Z,12.98
2022-12-03T07:55:28.115Z,12.63
2022-12-03T07:57:53.884Z,12.80
2022-12-03T08:00:20.216Z,12.35
2022-12-03T08:02:46.112Z,13.57
2022-12-03T08:05:12.363Z,12.77
2022-12-03T08:07:38.240Z,13.18
2022-12-03T08:10:06.092Z,12.65
2022-12-03T08:12:41.010Z,12.60
2022-12-03T08:15:15.732Z,13.05
2022-12-03T08:17:42.884Z,12.37
2022-12-03T08:20:17.275Z,12.88
2022-12-03T08:22:45.786Z,13.88
2022-12-03T08:25:26.440Z,13.32
2022-12-03T08:27:56.196Z,12.80
2022-12-03T08:30:22.416Z,13.00
2022-12-03T08:32:48.681Z,13.68
2022-12-03T08:35:23.009Z,13.57
2022-12-03T08:37:59.234Z,13.57
2022-12-03T08:40:38.217Z,14.27
2022-12-03T08:43:22.697Z,15.05
2022-12-03T08:45:50.765Z,16.17
2022-12-03T08:48:31.843Z,14.90
2022-12-03T08:51:01.123Z,15.23
2022-12-03T08:53:35.697Z,14.88
2022-12-03T08:56:19.032Z,14.73
2022-12-03T08:58:47.512Z,16.42
2022-12-03T09:01:13.326Z,15.35
2022-12-03T09:03:48.193Z,16.65
2022-12-03T09:06:14.091Z,18.30
2022-12-03T09:08:39.895Z,17.75
2022-12-03T09:11:05.716Z,17.23
2022-12-03T09:13:31.532Z,17.95
2022-12-03T09:15:57.302Z,18.17
2022-12-03T09:18:23.306Z,19.23
2022-12-03T09:20:49.489Z,16.95
2022-12-03T09:23:15.279Z,17.00
2022-12-03T09:25:41.079Z,17.23
2022-12-03T09:28:07.537Z,15.93
2022-12-03T09:30:33.421Z,18.58
2022-12-03T09:32:59.473Z,18.05
2022-12-03T09:35:28.230Z,18.00
2022-12-03T09:37:53.997Z,18.02
2022-12-03T09:40:20.364Z,18.27
2022-12-03T09:42:46.737Z,18.17
2022-12-03T09:45:14.906Z,19.13
2022-12-03T09:47:44.979Z,19.80
2022-12-03T09:50:14.558Z,18.65
2022-12-03T09:52:40.327Z,20.27
2022-12-03T09:55:27.455Z,18.67
2022-12-03T09:57:54.579Z,19.75
2022-12-03T10:00:23.963Z,18.50
2022-12-03T10:02:53.026Z,19.00
2022-12-03T10:05:20.648Z,19.92
2022-12-03T10:07:47.850Z,18.98
2022-12-03T10:10:17.292Z,18.88
2022-12-03T10:12:43.388Z,19.27
2022-12-03T10:15:22.096Z,19.00
2022-12-03T10:17:50.586Z,18.23
2022-12-03T10:20:18.280Z,19.42
2022-12-03T10:22:44.483Z,18.38
2022-12-03T10:25:13.468Z,19.13
2022-12-03T10:27:40.368Z,18.27
2022-12-03T10:30:19.082Z,18.85
2022-12-03T10:32:50.109Z,18.98
2022-12-03T10:35:22.674Z,19.88
2022-12-03T10:38:04.629Z,18.75
2022-12-03T10:40:33.500Z,18.60
2022-12-03T10:43:17.385Z,17.33
2022-12-03T10:46:03.535Z,18.95
2022-12-03T10:48:30.118Z,17.83
2022-12-03T10:51:06.337Z,18.50
2022-12-03T10:53:35.393Z,18.77
2022-12-03T10:56:04.355Z,19.02
2022-12-03T10:58:34.655Z,21.85
2022-12-03T11:01:05.490Z,20.35
2022-12-03T11:03:35.652Z,21.17
2022-12-03T11:06:02.444Z,19.38
2022-12-03T11:08:34.637Z,21.20
2022-12-03T11:11:03.396Z,20.13
2022-12-03T11:13:31.821Z,20.70
2022-12-03T11:16:02.112Z,22.23
2022-12-03T11:18:37.153Z,20.45
2022-12-03T11:21:10.306Z,20.05
2022-12-03T11:23:44.831Z,18.55
2022-12-03T11:26:28.637Z,18.48
2022-12-03T11:28:56.226Z,17.70
2022-12-03T11:31:37.149Z,18.17
2022-12-03T11:34:18.182Z,18.73
2022-12-03T11:37:08.906Z,17.58
2022-12-03T11:39:55.928Z,18.02
2022-12-03T11:42:27.772Z,18.52
2022-12-03T11:45:05.686Z,19.45
2022-12-03T11:48:11.523Z,18.98
2022-12-03T11:50:48.842Z,19.58
2022-12-03T11:53:26.478Z,19.58
2022-12-03T11:56:18.047Z,18.90
2022-12-03T11:58:45.927Z,19.20
2022-12-03T12:01:13.287Z,18.75
2022-12-03T12:03:50.081Z,19.90
2022-12-03T12:06:19.147Z,20.20
2022-12-03T12:08:51.076Z,20.42
2022-12-03T12:11:30.134Z,19.58
2022-12-03T12:13:58.272Z,19.83
2022-12-03T12:16:42.738Z,19.52
2022-12-03T12:19:26.836Z,20.00
2022-12-03T12:21:52.996Z,20.08
2022-12-03T12:24:39.416Z,18.90
2022-12-03T12:27:05.886Z,19.85
2022-12-03T12:29:32.207Z,19.23
2022-12-03T12:32:10.488Z,19.75
2022-12-03T12:34:40.736Z,18.02
2022-12-03T12:37:11.838Z,18.83
2022-12-03T12:39:38.218Z,18.70
2022-12-03T12:42:33.162Z,18.98
2022-12-03T12:45:20.438Z,18.75
2022-12-03T12:48:09.071Z,19.60
2022-12-03T12:50:38.557Z,19.50
2022-12-03T12:53:10.382Z,19.02
2022-12-03T12:55:40.142Z,19.92
2022-12-03T12:58:15.604Z,19.88
2022-12-03T13:00:42.124Z,19.23
2022-12-03T13:03:10.876Z,19.90
2022-12-03T13:05:46.207Z,20.27
2022-12-03T13:08:39.145Z,19.77
2022-12-03T13:11:12.038Z,18.45
2022-12-03T13:13:44.120Z,18.25
2022-12-03T13:16:25.734Z,20.25
2022-12-03T13:18:56.843Z,21.88
2022-12-03T13:21:43.377Z,20.20
2022-12-03T13:24:38.802Z,19.63
2022-12-03T13:27:31.929Z,19.70
2022-12-03T13:30:17.571Z,21.42
2022-12-03T13:32:43.660Z,18.75
2022-12-03T13:35:09.426Z,19.25
2022-12-03T13:37:36.847Z,19.42
2022-12-03T13:40:21.970Z,22.25
2022-12-03T13:42:47.927Z,20.17
2022-12-03T13:45:13.891Z,20.40
2022-12-03T13:47:41.359Z,20.13
2022-12-03T13:50:20.805Z,21.55
2022-12-03T13:52:47.199Z,21.00
2022-12-03T13:55:30.480Z,21.45
2022-12-03T13:57:56.990Z,19.95
2022-12-03T14:00:23.142Z,19.50
2022-12-03T14:02:49.246Z,19.55
2022-12-03T14:05:15.138Z,19.58
2022-12-03T14:07:41.837Z,20.73
2022-12-03T14:10:10.642Z,20.48
2022-12-03T14:12:36.487Z,20.63
2022-12-03T14:15:04.443Z,19.42
2022-12-03T14:17:31.310Z,20.42
2022-12-03T14:20:01.040Z,19.98
2022-12-03T14:22:27.640Z,19.92
2022-12-03T14:24:53.794Z,18.58
2022-12-03T14:27:20.473Z,19.55
2022-12-03T14:29:46.280Z,21.02
2022-12-03T14:32:12.385Z,20.83
2022-12-03T14:34:38.232Z,20.23
2022-12-03T14:37:04.242Z,21.65
2022-12-03T14:39:30.248Z,20.50
2022-12-03T14:42:14.145Z,21.67
2022-12-03T14:44:50.409Z,20.33
2022-12-03T14:47:19.288Z,20.98
2022-12-03T14:49:45.604Z,20.48
2022-12-03T14:52:12.743Z,19.75
2022-12-03T14:54:41.432Z,20.67
2022-12-03T14:57:07.968Z,21.17
2022-12-03T14:59:33.930Z,22.08
2022-12-03T15:01:59.888Z,20.98
2022-12-03T15:04:25.817Z,21.33
2022-12-03T15:06:51.604Z,21.85
2022-12-03T15:09:17.445Z,20.20
2022-12-03T15:11:46.355Z,21.10
2022-12-03T15:14:12.627Z,22.23
2022-12-03T15:16:38.793Z,20.25
2022-12-03T15:19:04.607Z,21.42
2022-12-03T15:21:32.040Z,21.80
2022-12-03T15:23:59.073Z,19.85
2022-12-03T15:26:24.981Z,20.75
2022-12-03T15:28:50.780Z,21.20
2022-12-03T15:31:16.611Z,21.00
2022-12-03T15:33:42.442Z,21.55
2022-12-03T15:36:08.366Z,21.50
2022-12-03T15:38:34.207Z,21.33
2022-12-03T15:41:19.938Z,21.63
2022-12-03T15:43:52.435Z,22.50
2022-12-03T15:46:19.244Z,22.52
2022-12-03T15:48:46.017Z,21.88
2022-12-03T15:51:12.033Z,20.95
2022-12-03T15:53:38.725Z,21.90
2022-12-03T15:56:04.786Z,21.52
2022-12-03T15:58:30.605Z,21.48
2022-12-03T16:00:56.432Z,21.33
2022-12-03T16:03:22.615Z,21.20
2022-12-03T16:05:48.416Z,22.92
2022-12-03T16:08:14.236Z,21.38
2022-12-03T16:10:40.067Z,19.67
2022-12-03T16:13:05.870Z,21.17
2022-12-03T16:15:31.688Z,22.52
2022-12-03T16:17:57.530Z,19.92
2022-12-03T16:20:23.351Z,23.20
2022-12-03T16:22:49.142Z,23.40
2022-12-03T16:25:15.031Z,22.85
2022-12-03T16:27:40.917Z,22.35
2022-12-03T16:30:07.488Z,22.30
2022-12-03T16:32:33.255Z,22.70
2022-12-03T16:34:59.060Z,22.23
2022-12-03T16:37:24.822Z,20.45
2022-12-03T16:39:50.620Z,22.45
2022-12-03T16:42:17.688Z,22.63
2022-12-03T16:45:04.145Z,20.92
2022-12-03T16:47:34.162Z,22.65
2022-12-03T16:50:05.075Z,23.33
2022-12-03T16:52:30.939Z,21.65
2022-12-03T16:54:56.938Z,22.02
2022-12-03T16:57:22.724Z,22.25
2022-12-03T16:59:48.508Z,23.05
2022-12-03T17:02:14.512Z,23.25
2022-12-03T17:04:40.366Z,22.50
2022-12-03T17:07:06.142Z,22.50
2022-12-03T17:09:32.078Z,23.17
2022-12-03T17:11:58.075Z,23.80
2022-12-03T17:14:27.299Z,24.08
2022-12-03T17:16:55.754Z,23.80
2022-12-03T17:19:21.561Z,23.52
2022-12-03T17:21:47.384Z,23.10
2022-12-03T17:24:13.164Z,22.40
2022-12-03T17:26:41.197Z,23.45
2022-12-03T17:29:07.026Z,23.17
2022-12-03T17:31:36.982Z,24.40
2022-12-03T17:34:05.856Z,23.10
2022-12-03T17:36:31.683Z,23.00
2022-12-03T17:38:57.460Z,22.15
2022-12-03T17:41:25.430Z,23.20
2022-12-03T17:43:53.094Z,22.98
2022-12-03T17:46:19.463Z,24.95
2022-12-03T17:48:45.443Z,22.98
2022-12-03T17:51:11.217Z,23.25
2022-12-03T17:53:36.982Z,22.10
2022-12-03T17:56:02.894Z,23.00
2022-12-03T17:58:28.711Z,23.45
2022-12-03T18:01:00.294Z,23.00
2022-12-03T18:03:28.264Z,23.77
2022-12-03T18:05:54.617Z,25.75
2022-12-03T18:08:20.572Z,24.13
2022-12-03T18:10:46.490Z,23.00
2022-12-03T18:13:12.236Z,23.08
2022-12-03T18:15:38.255Z,23.33
2022-12-03T18:18:04.076Z,24.08
2022-12-03T18:20:30.128Z,22.63
2022-12-03T18:22:58.574Z,22.60
2022-12-03T18:25:25.016Z,23.35
2022-12-03T18:27:50.867Z,22.08
2022-12-03T18:30:16.786Z,24.13
2022-12-03T18:32:42.741Z,22.63
2022-12-03T18:35:08.737Z,22.38
2022-12-03T18:37:34.753Z,22.27
2022-12-03T18:40:00.833Z,24.27
2022-12-03T18:42:26.682Z,22.00
2022-12-03T18:44:54.527Z,22.42
2022-12-03T18:47:28.182Z,22.73
2022-12-03T18:49:55.128Z,23.10
2022-12-03T18:52:22.689Z,22.00
2022-12-03T18:54:48.718Z,22.73
2022-12-03T18:57:14.828Z,23.65
2022-12-03T18:59:40.763Z,22.50
2022-12-03T19:02:09.942Z,22.98
2022-12-03T19:04:35.770Z,21.70
2022-12-03T19:07:03.030Z,22.73
2022-12-03T19:09:28.834Z,23.20
2022-12-03T19:11:54.606Z,23.08
2022-12-03T19:14:20.365Z,22.35
2022-12-03T19:16:46.334Z,23.58
2022-12-03T19:19:12.431Z,23.42
2022-12-03T19:21:38.720Z,21.63
2022-12-03T19:24:23.957Z,23.10
2022-12-03T19:26:53.891Z,23.35
2022-12-03T19:29:21.260Z,23.17
2022-12-03T19:31:48.932Z,22.33
2022-12-03T19:34:15.287Z,23.00
2022-12-03T19:36:41.032Z,22.48
2022-12-03T19:39:06.887Z,22.75
2022-12-03T19:41:32.705Z,23.85
2022-12-03T19:43:58.810Z,23.40
2022-12-03T19:46:28.189Z,23.15
2022-12-03T19:48:54.276Z,24.48
2022-12-03T19:51:34.277Z,23.38
2022-12-03T19:54:02.326Z,22.50
2022-12-03T19:56:29.526Z,24.88
2022-12-03T19:58:55.792Z,22.00
2022-12-03T20:01:24.911Z,21.52
2022-12-03T20:03:53.259Z,21.80
2022-12-03T20:06:23.379Z,21.70
2022-12-03T20:08:50.307Z,21.75
2022-12-03T20:11:21.626Z,23.77
2022-12-03T20:13:51.479Z,22.77
2022-12-03T20:16:17.413Z,23.23
2022-12-03T20:18:45.424Z,22.67
2022-12-03T20:21:13.696Z,23.55
2022-12-03T20:23:40.181Z,22.80
2022-12-03T20:26:08.025Z,21.95
2022-12-03T20:28:34.105Z,22.02
2022-12-03T20:31:01.877Z,23.08
2022-12-03T20:33:27.973Z,23.45
2022-12-03T20:35:55.396Z,23.27
2022-12-03T20:38:22.709Z,22.42
2022-12-03T20:40:49.110Z,21.92
2022-12-03T20:43:15.020Z,22.70
2022-12-03T20:45:41.027Z,22.65
2022-12-03T20:48:07.186Z,21.73
2022-12-03T20:50:33.044Z,21.58
2022-12-03T20:53:23.030Z,22.55
2022-12-03T20:55:44.580Z,22.13
2022-12-03T20:58:10.374Z,21.98
2022-12-03T21:00:36.163Z,20.83
2022-12-03T21:03:02.033Z,21.00
2022-12-03T21:05:27.810Z,21.63
2022-12-03T21:07:53.981Z,22.10
2022-12-03T21:10:44.284Z,22.00
2022-12-03T21:13:15.327Z,20.52
2022-12-03T21:15:42.298Z,20.70
2022-12-03T21:18:10.824Z,21.90
2022-12-03T21:20:45.869Z,21.23
2022-12-03T21:23:13.278Z,21.38
2022-12-03T21:25:40.232Z,21.40
2022-12-03T21:28:08.476Z,19.60
2022-12-03T21:30:37.691Z,18.88
2022-12-03T21:33:03.929Z,19.13
2022-12-03T21:35:29.921Z,18.73
2022-12-03T21:37:55.856Z,18.77
2022-12-03T21:40:21.729Z,18.83
2022-12-03T21:42:47.571Z,17.42
2022-12-03T21:45:14.103Z,19.17
2022-12-03T21:47:40.226Z,18.33
2022-12-03T21:50:08.334Z,17.80
2022-12-03T21:52:34.835Z,16.95
2022-12-03T21:55:00.917Z,16.70
2022-12-03T21:57:26.826Z,17.05
2022-12-03T21:59:54.311Z,18.63
2022-12-03T22:02:21.240Z,18.33
2022-12-03T22:04:50.327Z,17.80
2022-12-03T22:07:16.764Z,16.60
2022-12-03T22:09:42.530Z,17.63
2022-12-03T22:12:08.286Z,17.38
2022-12-03T22:14:34.106Z,17.30
2022-12-03T22:16:59.877Z,18.60
2022-12-03T22:19:25.828Z,17.58
2022-12-03T22:21:51.659Z,19.00
2022-12-03T22:24:18.620Z,17.42
2022-12-03T22:26:44.853Z,17.98
2022-12-03T22:29:11.409Z,18.02
2022-12-03T22:31:37.609Z,17.63
2022-12-03T22:34:04.498Z,18.60
2022-12-03T22:36:30.392Z,17.77
2022-12-03T22:38:56.339Z,18.98
2022-12-03T22:41:22.162Z,19.08
2022-12-03T22:43:48.881Z,17.90
2022-12-03T22:46:15.793Z,19.00
2022-12-03T22:48:43.125Z,18.00
2022-12-03T22:51:18.399Z,17.17
2022-12-03T22:53:44.455Z,18.58
2022-12-03T22:56:10.331Z,16.63
2022-12-03T22:58:37.913Z,17.38
2022-12-03T23:01:04.271Z,18.60
2022-12-03T23:03:30.245Z,18.25
2022-12-03T23:05:56.230Z,18.90
2022-12-03T23:08:22.225Z,17.35
2022-12-03T23:10:50.999Z,17.85
2022-12-03T23:13:18.176Z,16.67
2022-12-03T23:15:45.831Z,17.42
2022-12-03T23:18:11.834Z,17.27
2022-12-03T23:20:49.755Z,17.55
2022-12-03T23:23:17.489Z,17.77
2022-12-03T23:25:46.414Z,16.30
2022-12-03T23:28:12.279Z,16.45
2022-12-03T23:30:38.796Z,16.92
2022-12-03T23:33:05.660Z,16.27
2022-12-03T23:35:33.120Z,17.23
2022-12-03T23:37:58.920Z,16.95
2022-12-03T23:40:24.750Z,16.17
2022-12-03T23:42:50.496Z,17.60
2022-12-03T23:45:16.314Z,16.80
2022-12-03T23:47:42.064Z,17.10
2022-12-03T23:50:08.025Z,17.48
2022-12-03T23:52:35.428Z,16.77
2022-12-03T23:55:01.518Z,17.00
2022-12-03T23:57:27.360Z,16.65
2022-12-03T23:59:53.458Z,17.65
